sensor_id;sensor_type;location;lat;lon;timestamp;pressure;altitude;pressure_sealevel;temperature;humidity
64368;BME280;50692;53.314;-6.300;2023-10-08T00:00:33;101760.41;;;19.60;75.36
64368;BME280;50692;53.314;-6.300;2023-10-08T00:03:30;101762.88;;;19.63;75.45
64368;BME280;50692;53.314;-6.300;2023-10-08T00:06:18;101763.94;;;19.61;75.44
64368;BME280;50692;53.314;-6.300;2023-10-08T00:09:05;101742.66;;;19.47;75.53
64368;BME280;50692;53.314;-6.300;2023-10-08T00:11:54;101762.56;;;19.55;75.59
64368;BME280;50692;53.314;-6.300;2023-10-08T00:14:41;101756.34;;;19.55;75.84
64368;BME280;50692;53.314;-6.300;2023-10-08T00:17:31;101740.00;;;19.34;75.85
64368;BME280;50692;53.314;-6.300;2023-10-08T00:20:18;101786.47;;;19.58;75.85
64368;BME280;50692;53.314;-6.300;2023-10-08T00:23:10;101769.03;;;19.53;75.84
64368;BME280;50692;53.314;-6.300;2023-10-08T00:25:57;101740.00;;;19.34;75.76
64368;BME280;50692;53.314;-6.300;2023-10-08T00:28:49;101778.91;;;19.52;76.05
64368;BME280;50692;53.314;-6.300;2023-10-08T00:31:37;101783.38;;;19.52;76.18
64368;BME280;50692;53.314;-6.300;2023-10-08T00:34:25;101779.44;;;19.45;76.31
64368;BME280;50692;53.314;-6.300;2023-10-08T00:37:12;101788.34;;;19.45;76.55
64368;BME280;50692;53.314;-6.300;2023-10-08T00:40:03;101777.88;;;19.29;77.27
64368;BME280;50692;53.314;-6.300;2023-10-08T00:42:57;101768.34;;;19.25;77.34
64368;BME280;50692;53.314;-6.300;2023-10-08T00:45:44;101778.63;;;19.31;77.42
64368;BME280;50692;53.314;-6.300;2023-10-08T00:48:35;101767.22;;;19.16;77.87
64368;BME280;50692;53.314;-6.300;2023-10-08T00:51:22;101776.28;;;19.27;77.36
64368;BME280;50692;53.314;-6.300;2023-10-08T00:54:10;101770.41;;;19.22;77.48
64368;BME280;50692;53.314;-6.300;2023-10-08T00:57:04;101780.38;;;19.20;77.71
64368;BME280;50692;53.314;-6.300;2023-10-08T00:59:52;101774.38;;;19.16;77.75
64368;BME280;50692;53.314;-6.300;2023-10-08T01:02:41;101738.13;;;18.86;78.39
64368;BME280;50692;53.314;-6.300;2023-10-08T01:05:31;101768.63;;;18.97;78.63
64368;BME280;50692;53.314;-6.300;2023-10-08T01:08:32;101776.69;;;18.97;78.78
64368;BME280;50692;53.314;-6.300;2023-10-08T01:11:35;101768.25;;;18.77;79.19
64368;BME280;50692;53.314;-6.300;2023-10-08T01:14:37;101769.09;;;18.78;79.19
64368;BME280;50692;53.314;-6.300;2023-10-08T01:17:24;101755.34;;;18.69;79.12
64368;BME280;50692;53.314;-6.300;2023-10-08T01:20:11;101779.78;;;18.90;78.66
64368;BME280;50692;53.314;-6.300;2023-10-08T01:23:15;101754.94;;;18.76;78.57
64368;BME280;50692;53.314;-6.300;2023-10-08T01:26:08;101731.06;;;18.60;78.68
64368;BME280;50692;53.314;-6.300;2023-10-08T01:29:01;101773.16;;;18.83;78.79
64368;BME280;50692;53.314;-6.300;2023-10-08T01:31:53;101756.78;;;18.75;78.92
64368;BME280;50692;53.314;-6.300;2023-10-08T01:34:46;101777.22;;;18.76;79.07
64368;BME280;50692;53.314;-6.300;2023-10-08T01:37:32;101785.38;;;18.75;79.23
64368;BME280;50692;53.314;-6.300;2023-10-08T01:40:20;101781.94;;;18.73;79.47
64368;BME280;50692;53.314;-6.300;2023-10-08T01:43:06;101745.72;;;18.54;79.42
64368;BME280;50692;53.314;-6.300;2023-10-08T01:45:53;101793.72;;;18.70;79.52
64368;BME280;50692;53.314;-6.300;2023-10-08T01:48:40;101784.16;;;18.66;79.65
64368;BME280;50692;53.314;-6.300;2023-10-08T01:51:27;101759.75;;;18.45;80.60
64368;BME280;50692;53.314;-6.300;2023-10-08T01:54:35;101776.38;;;18.63;79.99
64368;BME280;50692;53.314;-6.300;2023-10-08T01:57:22;101782.44;;;18.65;79.93
64368;BME280;50692;53.314;-6.300;2023-10-08T02:00:09;101783.63;;;18.61;79.90
64368;BME280;50692;53.314;-6.300;2023-10-08T02:02:55;101777.09;;;18.65;79.76
64368;BME280;50692;53.314;-6.300;2023-10-08T02:05:44;101768.44;;;18.61;80.07
64368;BME280;50692;53.314;-6.300;2023-10-08T02:08:31;101729.88;;;18.38;80.18
64368;BME280;50692;53.314;-6.300;2023-10-08T02:11:17;101766.81;;;18.59;79.97
64368;BME280;50692;53.314;-6.300;2023-10-08T02:14:04;101770.13;;;18.62;80.00
64368;BME280;50692;53.314;-6.300;2023-10-08T02:16:51;101759.53;;;18.61;79.98
64368;BME280;50692;53.314;-6.300;2023-10-08T02:19:41;101764.91;;;18.61;80.10
64368;BME280;50692;53.314;-6.300;2023-10-08T02:22:28;101748.31;;;18.56;79.94
64368;BME280;50692;53.314;-6.300;2023-10-08T02:25:15;101758.38;;;18.52;80.26
64368;BME280;50692;53.314;-6.300;2023-10-08T02:28:03;101768.75;;;18.57;80.02
64368;BME280;50692;53.314;-6.300;2023-10-08T02:30:49;101775.16;;;18.54;80.04
64368;BME280;50692;53.314;-6.300;2023-10-08T02:33:35;101761.88;;;18.40;80.11
64368;BME280;50692;53.314;-6.300;2023-10-08T02:36:23;101780.41;;;18.43;80.28
64368;BME280;50692;53.314;-6.300;2023-10-08T02:39:09;101785.97;;;18.40;80.34
64368;BME280;50692;53.314;-6.300;2023-10-08T02:42:07;101778.38;;;18.34;80.30
64368;BME280;50692;53.314;-6.300;2023-10-08T02:44:57;101759.22;;;18.27;80.18
64368;BME280;50692;53.314;-6.300;2023-10-08T02:47:49;101755.25;;;18.20;80.24
64368;BME280;50692;53.314;-6.300;2023-10-08T02:50:35;101762.19;;;18.22;80.41
64368;BME280;50692;53.314;-6.300;2023-10-08T02:53:21;101746.22;;;18.08;80.20
64368;BME280;50692;53.314;-6.300;2023-10-08T02:56:11;101768.72;;;18.18;80.44
64368;BME280;50692;53.314;-6.300;2023-10-08T02:58:59;101772.78;;;18.11;80.57
64368;BME280;50692;53.314;-6.300;2023-10-08T03:01:50;101781.97;;;18.07;80.61
64368;BME280;50692;53.314;-6.300;2023-10-08T03:04:42;101776.94;;;18.03;80.77
64368;BME280;50692;53.314;-6.300;2023-10-08T03:07:30;101767.63;;;18.08;81.21
64368;BME280;50692;53.314;-6.300;2023-10-08T03:10:21;101757.44;;;17.88;81.17
64368;BME280;50692;53.314;-6.300;2023-10-08T03:13:08;101755.47;;;17.77;81.98
64368;BME280;50692;53.314;-6.300;2023-10-08T03:15:55;101756.34;;;17.78;82.08
64368;BME280;50692;53.314;-6.300;2023-10-08T03:18:47;101745.03;;;17.72;82.34
64368;BME280;50692;53.314;-6.300;2023-10-08T03:21:35;101734.78;;;17.66;82.28
64368;BME280;50692;53.314;-6.300;2023-10-08T03:24:24;101749.34;;;17.75;82.57
64368;BME280;50692;53.314;-6.300;2023-10-08T03:27:22;101739.16;;;17.67;82.45
64368;BME280;50692;53.314;-6.300;2023-10-08T03:30:11;101731.25;;;17.66;82.29
64368;BME280;50692;53.314;-6.300;2023-10-08T03:33:01;101734.78;;;17.66;82.62
64368;BME280;50692;53.314;-6.300;2023-10-08T03:35:50;101718.81;;;17.65;82.68
64368;BME280;50692;53.314;-6.300;2023-10-08T03:38:40;101730.47;;;17.64;82.56
64368;BME280;50692;53.314;-6.300;2023-10-08T03:41:38;101723.38;;;17.50;82.91
64368;BME280;50692;53.314;-6.300;2023-10-08T03:44:26;101727.97;;;17.48;83.04
64368;BME280;50692;53.314;-6.300;2023-10-08T03:47:15;101710.00;;;17.50;82.87
64368;BME280;50692;53.314;-6.300;2023-10-08T03:50:06;101721.53;;;17.50;82.62
64368;BME280;50692;53.314;-6.300;2023-10-08T03:52:55;101723.09;;;17.40;82.75
64368;BME280;50692;53.314;-6.300;2023-10-08T03:55:43;101723.38;;;17.50;82.46
64368;BME280;50692;53.314;-6.300;2023-10-08T03:58:29;101726.66;;;17.41;82.53
64368;BME280;50692;53.314;-6.300;2023-10-08T04:01:17;101710.81;;;17.38;82.59
64368;BME280;50692;53.314;-6.300;2023-10-08T04:04:06;101682.78;;;17.31;82.52
64368;BME280;50692;53.314;-6.300;2023-10-08T04:07:03;101702.03;;;17.36;82.46
64368;BME280;50692;53.314;-6.300;2023-10-08T04:10:07;101697.97;;;17.30;82.87
64368;BME280;50692;53.314;-6.300;2023-10-08T04:12:56;101692.91;;;17.25;82.65
64368;BME280;50692;53.314;-6.300;2023-10-08T04:15:42;101678.66;;;17.12;83.02
64368;BME280;50692;53.314;-6.300;2023-10-08T04:18:27;101675.34;;;17.09;83.12
64368;BME280;50692;53.314;-6.300;2023-10-08T04:21:14;101692.56;;;17.17;83.56
64368;BME280;50692;53.314;-6.300;2023-10-08T04:24:02;101696.38;;;17.13;83.42
64368;BME280;50692;53.314;-6.300;2023-10-08T04:26:51;101689.34;;;17.12;83.47
64368;BME280;50692;53.314;-6.300;2023-10-08T04:29:37;101696.84;;;17.20;83.28
64368;BME280;50692;53.314;-6.300;2023-10-08T04:32:23;101689.13;;;17.15;83.13
64368;BME280;50692;53.314;-6.300;2023-10-08T04:35:10;101663.25;;;16.89;83.80
64368;BME280;50692;53.314;-6.300;2023-10-08T04:38:00;101689.13;;;17.15;83.63
64368;BME280;50692;53.314;-6.300;2023-10-08T04:40:49;101686.56;;;17.14;83.64
64368;BME280;50692;53.314;-6.300;2023-10-08T04:43:38;101700.13;;;17.11;83.82
64368;BME280;50692;53.314;-6.300;2023-10-08T04:46:28;101700.22;;;17.09;83.79
64368;BME280;50692;53.314;-6.300;2023-10-08T04:49:32;101648.97;;;16.75;83.51
64368;BME280;50692;53.314;-6.300;2023-10-08T04:52:19;101651.63;;;16.75;83.37
64368;BME280;50692;53.314;-6.300;2023-10-08T04:55:06;101699.75;;;17.02;83.39
64368;BME280;50692;53.314;-6.300;2023-10-08T04:58:01;101707.66;;;17.04;83.55
64368;BME280;50692;53.314;-6.300;2023-10-08T05:00:57;101719.97;;;17.07;83.53
64368;BME280;50692;53.314;-6.300;2023-10-08T05:07:08;101715.47;;;17.07;83.36
64368;BME280;50692;53.314;-6.300;2023-10-08T05:10:07;101715.78;;;17.02;83.50
64368;BME280;50692;53.314;-6.300;2023-10-08T05:13:13;101724.28;;;17.09;83.58
64368;BME280;50692;53.314;-6.300;2023-10-08T05:16:02;101695.41;;;16.87;83.68
64368;BME280;50692;53.314;-6.300;2023-10-08T05:19:09;101744.19;;;17.03;84.14
64368;BME280;50692;53.314;-6.300;2023-10-08T05:22:23;101725.44;;;17.05;84.29
64368;BME280;50692;53.314;-6.300;2023-10-08T05:25:18;101711.41;;;17.01;84.14
64368;BME280;50692;53.314;-6.300;2023-10-08T05:28:24;101718.25;;;17.06;83.75
64368;BME280;50692;53.314;-6.300;2023-10-08T05:31:11;101737.81;;;17.06;84.12
64368;BME280;50692;53.314;-6.300;2023-10-08T05:34:08;101745.81;;;17.06;84.24
64368;BME280;50692;53.314;-6.300;2023-10-08T05:37:00;101709.31;;;16.92;84.15
64368;BME280;50692;53.314;-6.300;2023-10-08T05:39:45;101726.56;;;17.01;84.49
64368;BME280;50692;53.314;-6.300;2023-10-08T05:42:47;101735.69;;;17.11;84.14
64368;BME280;50692;53.314;-6.300;2023-10-08T05:45:35;101729.41;;;17.12;84.01
64368;BME280;50692;53.314;-6.300;2023-10-08T05:48:22;101741.81;;;17.13;83.79
64368;BME280;50692;53.314;-6.300;2023-10-08T05:51:13;101730.34;;;17.11;83.83
64368;BME280;50692;53.314;-6.300;2023-10-08T05:54:09;101738.16;;;17.14;83.80
64368;BME280;50692;53.314;-6.300;2023-10-08T05:57:10;101728.09;;;17.05;84.05
64368;BME280;50692;53.314;-6.300;2023-10-08T05:59:56;101724.28;;;17.09;83.82
64368;BME280;50692;53.314;-6.300;2023-10-08T06:02:42;101733.22;;;17.08;83.67
64368;BME280;50692;53.314;-6.300;2023-10-08T06:05:31;101717.28;;;17.07;83.61
64368;BME280;50692;53.314;-6.300;2023-10-08T06:08:30;101719.41;;;17.01;83.58
64368;BME280;50692;53.314;-6.300;2023-10-08T06:11:38;101725.81;;;16.99;83.61
64368;BME280;50692;53.314;-6.300;2023-10-08T06:14:30;101724.28;;;16.95;83.81
64368;BME280;50692;53.314;-6.300;2023-10-08T06:17:38;101738.88;;;16.89;83.87
64368;BME280;50692;53.314;-6.300;2023-10-08T06:20:49;101734.03;;;16.82;83.96
64368;BME280;50692;53.314;-6.300;2023-10-08T06:23:41;101708.94;;;16.70;84.10
64368;BME280;50692;53.314;-6.300;2023-10-08T06:26:31;101718.97;;;16.81;84.15
64368;BME280;50692;53.314;-6.300;2023-10-08T06:29:21;101723.53;;;16.78;84.12
64368;BME280;50692;53.314;-6.300;2023-10-08T06:32:15;101739.38;;;16.82;83.56
64368;BME280;50692;53.314;-6.300;2023-10-08T06:35:00;101751.66;;;16.70;84.16
64368;BME280;50692;53.314;-6.300;2023-10-08T06:37:48;101743.06;;;16.65;84.00
64368;BME280;50692;53.314;-6.300;2023-10-08T06:40:36;101739.53;;;16.64;83.64
64368;BME280;50692;53.314;-6.300;2023-10-08T06:43:22;101741.16;;;16.67;83.40
64368;BME280;50692;53.314;-6.300;2023-10-08T06:46:10;101740.50;;;16.63;83.25
64368;BME280;50692;53.314;-6.300;2023-10-08T06:49:01;101733.53;;;16.61;83.14
64368;BME280;50692;53.314;-6.300;2023-10-08T06:51:47;101743.91;;;16.51;83.25
64368;BME280;50692;53.314;-6.300;2023-10-08T06:54:34;101767.00;;;16.52;83.18
64368;BME280;50692;53.314;-6.300;2023-10-08T06:57:20;101762.41;;;16.54;82.87
64368;BME280;50692;53.314;-6.300;2023-10-08T07:00:07;101762.31;;;16.55;82.73
64368;BME280;50692;53.314;-6.300;2023-10-08T07:02:58;101753.91;;;16.47;82.65
64368;BME280;50692;53.314;-6.300;2023-10-08T07:05:48;101751.34;;;16.46;83.00
64368;BME280;50692;53.314;-6.300;2023-10-08T07:08:44;101752.69;;;16.53;82.81
64368;BME280;50692;53.314;-6.300;2023-10-08T07:11:40;101742.31;;;16.48;82.83
64368;BME280;50692;53.314;-6.300;2023-10-08T07:14:31;101740.66;;;16.46;82.62
64368;BME280;50692;53.314;-6.300;2023-10-08T07:17:17;101768.50;;;16.56;82.76
64368;BME280;50692;53.314;-6.300;2023-10-08T07:20:06;101752.97;;;16.48;82.68
64368;BME280;50692;53.314;-6.300;2023-10-08T07:22:59;101775.09;;;16.65;82.39
64368;BME280;50692;53.314;-6.300;2023-10-08T07:26:06;101759.41;;;16.74;82.36
64368;BME280;50692;53.314;-6.300;2023-10-08T07:29:00;101780.47;;;16.79;82.14
64368;BME280;50692;53.314;-6.300;2023-10-08T07:31:46;101762.53;;;16.81;81.94
64368;BME280;50692;53.314;-6.300;2023-10-08T07:34:38;101769.88;;;16.92;81.91
64368;BME280;50692;53.314;-6.300;2023-10-08T07:37:24;101783.78;;;16.97;81.64
64368;BME280;50692;53.314;-6.300;2023-10-08T07:40:12;101781.91;;;16.99;81.67
64368;BME280;50692;53.314;-6.300;2023-10-08T07:42:58;101793.91;;;17.06;81.39
64368;BME280;50692;53.314;-6.300;2023-10-08T07:45:53;101792.75;;;17.10;81.16
64368;BME280;50692;53.314;-6.300;2023-10-08T07:48:41;101769.94;;;17.05;81.21
64368;BME280;50692;53.314;-6.300;2023-10-08T07:51:28;101765.84;;;17.13;81.12
64368;BME280;50692;53.314;-6.300;2023-10-08T07:54:14;101762.78;;;17.19;81.30
64368;BME280;50692;53.314;-6.300;2023-10-08T07:57:02;101762.75;;;17.34;81.52
64368;BME280;50692;53.314;-6.300;2023-10-08T07:59:54;101755.84;;;17.44;81.19
64368;BME280;50692;53.314;-6.300;2023-10-08T08:02:46;101761.56;;;17.52;81.15
64368;BME280;50692;53.314;-6.300;2023-10-08T08:05:34;101737.91;;;17.46;80.80
64368;BME280;50692;53.314;-6.300;2023-10-08T08:08:20;101757.81;;;17.55;80.41
64368;BME280;50692;53.314;-6.300;2023-10-08T08:11:08;101781.28;;;17.64;80.20
64368;BME280;50692;53.314;-6.300;2023-10-08T08:13:57;101787.16;;;17.69;78.92
64368;BME280;50692;53.314;-6.300;2023-10-08T08:16:46;101792.22;;;17.73;79.97
64368;BME280;50692;53.314;-6.300;2023-10-08T08:19:33;101784.19;;;17.88;79.74
64368;BME280;50692;53.314;-6.300;2023-10-08T08:22:21;101794.81;;;18.02;78.82
64368;BME280;50692;53.314;-6.300;2023-10-08T08:25:07;101785.56;;;17.93;77.63
64368;BME280;50692;53.314;-6.300;2023-10-08T08:28:02;101819.84;;;18.01;76.28
64368;BME280;50692;53.314;-6.300;2023-10-08T08:30:52;101818.44;;;17.95;75.33
64368;BME280;50692;53.314;-6.300;2023-10-08T08:33:45;101822.16;;;18.20;75.04
64368;BME280;50692;53.314;-6.300;2023-10-08T08:36:45;101831.41;;;18.54;74.78
64368;BME280;50692;53.314;-6.300;2023-10-08T08:39:37;101836.38;;;18.99;73.49
64368;BME280;50692;53.314;-6.300;2023-10-08T08:42:23;101840.94;;;19.35;72.00
64368;BME280;50692;53.314;-6.300;2023-10-08T08:45:10;101830.28;;;19.83;70.39
64368;BME280;50692;53.314;-6.300;2023-10-08T08:48:00;101830.13;;;20.32;67.59
64368;BME280;50692;53.314;-6.300;2023-10-08T08:50:47;101830.88;;;20.81;64.54
64368;BME280;50692;53.314;-6.300;2023-10-08T08:53:37;101851.31;;;21.40;62.18
64368;BME280;50692;53.314;-6.300;2023-10-08T08:56:23;101836.78;;;21.86;60.04
64368;BME280;50692;53.314;-6.300;2023-10-08T08:59:09;101853.59;;;22.42;56.53
64368;BME280;50692;53.314;-6.300;2023-10-08T09:01:58;101844.03;;;22.80;53.17
64368;BME280;50692;53.314;-6.300;2023-10-08T09:04:47;101819.91;;;23.00;51.86
64368;BME280;50692;53.314;-6.300;2023-10-08T09:07:35;101862.56;;;23.65;50.71
64368;BME280;50692;53.314;-6.300;2023-10-08T09:10:22;101857.53;;;24.01;48.20
64368;BME280;50692;53.314;-6.300;2023-10-08T09:13:15;101851.41;;;24.28;45.03
64368;BME280;50692;53.314;-6.300;2023-10-08T09:16:12;101849.56;;;24.58;41.86
64368;BME280;50692;53.314;-6.300;2023-10-08T09:18:58;101856.41;;;24.42;39.98
64368;BME280;50692;53.314;-6.300;2023-10-08T09:24:53;101875.56;;;23.91;40.80
64368;BME280;50692;53.314;-6.300;2023-10-08T09:27:41;101862.81;;;23.53;41.12
64368;BME280;50692;53.314;-6.300;2023-10-08T09:30:31;101856.34;;;23.34;42.53
64368;BME280;50692;53.314;-6.300;2023-10-08T09:33:20;101861.22;;;23.10;43.28
64368;BME280;50692;53.314;-6.300;2023-10-08T09:36:06;101865.16;;;22.96;43.13
64368;BME280;50692;53.314;-6.300;2023-10-08T09:38:58;101858.19;;;22.93;43.45
64368;BME280;50692;53.314;-6.300;2023-10-08T09:41:45;101860.72;;;22.95;43.75
64368;BME280;50692;53.314;-6.300;2023-10-08T09:44:33;101846.88;;;22.79;44.13
64368;BME280;50692;53.314;-6.300;2023-10-08T09:47:25;101856.78;;;22.78;45.12
64368;BME280;50692;53.314;-6.300;2023-10-08T09:50:15;101850.59;;;22.87;45.42
64368;BME280;50692;53.314;-6.300;2023-10-08T09:53:11;101859.19;;;22.92;45.06
64368;BME280;50692;53.314;-6.300;2023-10-08T09:56:13;101847.72;;;22.79;44.78
64368;BME280;50692;53.314;-6.300;2023-10-08T09:59:02;101851.13;;;22.81;45.77
64368;BME280;50692;53.314;-6.300;2023-10-08T10:01:50;101848.38;;;22.71;45.30
64368;BME280;50692;53.314;-6.300;2023-10-08T10:04:43;101823.22;;;22.61;45.24
64368;BME280;50692;53.314;-6.300;2023-10-08T10:07:31;101794.09;;;22.55;45.74
64368;BME280;50692;53.314;-6.300;2023-10-08T10:10:32;101805.44;;;22.80;45.82
64368;BME280;50692;53.314;-6.300;2023-10-08T10:13:27;101789.94;;;23.03;45.23
64368;BME280;50692;53.314;-6.300;2023-10-08T10:16:22;101767.34;;;23.44;44.85
64368;BME280;50692;53.314;-6.300;2023-10-08T10:19:16;101735.75;;;23.75;43.25
64368;BME280;50692;53.314;-6.300;2023-10-08T10:22:04;101740.56;;;24.01;42.83
64368;BME280;50692;53.314;-6.300;2023-10-08T10:24:51;101734.97;;;24.12;42.66
64368;BME280;50692;53.314;-6.300;2023-10-08T10:27:37;101730.81;;;24.37;41.90
64368;BME280;50692;53.314;-6.300;2023-10-08T10:30:22;101754.97;;;24.48;42.05
64368;BME280;50692;53.314;-6.300;2023-10-08T10:33:09;101725.03;;;24.69;41.98
64368;BME280;50692;53.314;-6.300;2023-10-08T10:35:56;101729.34;;;25.17;42.20
64368;BME280;50692;53.314;-6.300;2023-10-08T10:38:42;101735.44;;;25.47;42.06
64368;BME280;50692;53.314;-6.300;2023-10-08T10:41:29;101718.84;;;25.50;42.21
64368;BME280;50692;53.314;-6.300;2023-10-08T10:44:16;101721.50;;;25.42;42.87
64368;BME280;50692;53.314;-6.300;2023-10-08T10:47:02;101717.03;;;25.32;43.95
64368;BME280;50692;53.314;-6.300;2023-10-08T10:50:04;101709.72;;;25.15;45.45
64368;BME280;50692;53.314;-6.300;2023-10-08T10:53:12;101710.50;;;24.98;47.11
64368;BME280;50692;53.314;-6.300;2023-10-08T10:55:59;101726.66;;;24.89;47.71
64368;BME280;50692;53.314;-6.300;2023-10-08T10:59:02;101705.50;;;24.75;48.71
64368;BME280;50692;53.314;-6.300;2023-10-08T11:02:05;101701.00;;;24.66;49.27
64368;BME280;50692;53.314;-6.300;2023-10-08T11:04:54;101698.88;;;24.60;50.08
64368;BME280;50692;53.314;-6.300;2023-10-08T11:07:40;101689.53;;;24.54;50.71
64368;BME280;50692;53.314;-6.300;2023-10-08T11:10:26;101699.34;;;24.55;51.23
64368;BME280;50692;53.314;-6.300;2023-10-08T11:13:14;101692.38;;;24.53;51.53
64368;BME280;50692;53.314;-6.300;2023-10-08T11:16:03;101701.94;;;24.47;52.09
64368;BME280;50692;53.314;-6.300;2023-10-08T11:18:50;101695.53;;;24.48;52.50
64368;BME280;50692;53.314;-6.300;2023-10-08T11:21:53;101684.16;;;24.45;52.80
64368;BME280;50692;53.314;-6.300;2023-10-08T11:24:47;101707.06;;;24.40;53.28
64368;BME280;50692;53.314;-6.300;2023-10-08T11:27:39;101720.72;;;24.29;53.55
64368;BME280;50692;53.314;-6.300;2023-10-08T11:30:26;101736.09;;;24.29;53.86
64368;BME280;50692;53.314;-6.300;2023-10-08T11:33:16;101769.50;;;24.28;54.09
64368;BME280;50692;53.314;-6.300;2023-10-08T11:36:04;101809.03;;;24.09;54.50
64368;BME280;50692;53.314;-6.300;2023-10-08T11:39:12;101825.38;;;23.88;54.49
64368;BME280;50692;53.314;-6.300;2023-10-08T11:42:06;101842.25;;;23.71;54.87
64368;BME280;50692;53.314;-6.300;2023-10-08T11:45:11;101840.34;;;23.42;54.58
64368;BME280;50692;53.314;-6.300;2023-10-08T11:48:04;101844.66;;;23.24;54.50
64368;BME280;50692;53.314;-6.300;2023-10-08T11:50:57;101832.81;;;23.06;54.44
64368;BME280;50692;53.314;-6.300;2023-10-08T11:53:46;101822.22;;;23.14;54.25
64368;BME280;50692;53.314;-6.300;2023-10-08T11:56:33;101829.06;;;23.28;54.02
64368;BME280;50692;53.314;-6.300;2023-10-08T11:59:19;101835.69;;;23.54;53.57
64368;BME280;50692;53.314;-6.300;2023-10-08T12:02:08;101840.03;;;23.86;53.11
64368;BME280;50692;53.314;-6.300;2023-10-08T12:04:54;101826.25;;;24.18;52.44
64368;BME280;50692;53.314;-6.300;2023-10-08T12:07:42;101834.31;;;24.57;52.03
64368;BME280;50692;53.314;-6.300;2023-10-08T12:10:29;101830.91;;;25.11;51.20
64368;BME280;50692;53.314;-6.300;2023-10-08T12:13:20;101828.88;;;25.51;50.06
64368;BME280;50692;53.314;-6.300;2023-10-08T12:16:14;101827.88;;;25.70;50.38
64368;BME280;50692;53.314;-6.300;2023-10-08T12:19:07;101806.63;;;25.93;51.12
64368;BME280;50692;53.314;-6.300;2023-10-08T12:22:02;101791.00;;;26.04;50.95
64368;BME280;50692;53.314;-6.300;2023-10-08T12:24:54;101795.75;;;26.28;50.84
64368;BME280;50692;53.314;-6.300;2023-10-08T12:27:41;101792.16;;;26.46;50.57
64368;BME280;50692;53.314;-6.300;2023-10-08T12:30:28;101798.91;;;26.42;50.85
64368;BME280;50692;53.314;-6.300;2023-10-08T12:33:16;101790.63;;;26.25;51.21
64368;BME280;50692;53.314;-6.300;2023-10-08T12:36:02;101783.94;;;26.12;51.61
64368;BME280;50692;53.314;-6.300;2023-10-08T12:38:56;101792.28;;;26.18;52.09
64368;BME280;50692;53.314;-6.300;2023-10-08T12:41:45;101794.75;;;26.29;51.85
64368;BME280;50692;53.314;-6.300;2023-10-08T12:44:30;101792.88;;;26.30;52.23
64368;BME280;50692;53.314;-6.300;2023-10-08T12:47:19;101800.53;;;26.35;52.12
64368;BME280;50692;53.314;-6.300;2023-10-08T12:50:05;101792.19;;;26.28;52.31
64368;BME280;50692;53.314;-6.300;2023-10-08T12:52:53;101790.72;;;26.34;52.26
64368;BME280;50692;53.314;-6.300;2023-10-08T12:55:40;101790.84;;;26.50;52.50
64368;BME280;50692;53.314;-6.300;2023-10-08T12:58:26;101791.44;;;26.62;52.26
64368;BME280;50692;53.314;-6.300;2023-10-08T13:01:18;101780.91;;;26.93;51.77
64368;BME280;50692;53.314;-6.300;2023-10-08T13:04:04;101771.63;;;27.38;51.21
64368;BME280;50692;53.314;-6.300;2023-10-08T13:06:57;101780.72;;;28.04;49.66
64368;BME280;50692;53.314;-6.300;2023-10-08T13:09:47;101754.69;;;28.58;48.74
64368;BME280;50692;53.314;-6.300;2023-10-08T13:12:37;101762.94;;;29.21;47.51
64368;BME280;50692;53.314;-6.300;2023-10-08T13:15:23;101760.84;;;29.85;46.19
64368;BME280;50692;53.314;-6.300;2023-10-08T13:18:11;101759.19;;;30.37;45.08
64368;BME280;50692;53.314;-6.300;2023-10-08T13:20:57;101753.41;;;30.84;44.39
64368;BME280;50692;53.314;-6.300;2023-10-08T13:23:44;101756.00;;;31.07;43.54
64368;BME280;50692;53.314;-6.300;2023-10-08T13:26:32;101763.75;;;30.89;43.15
64368;BME280;50692;53.314;-6.300;2023-10-08T13:29:18;101749.25;;;30.73;43.46
64368;BME280;50692;53.314;-6.300;2023-10-08T13:32:05;101743.13;;;30.71;43.44
64368;BME280;50692;53.314;-6.300;2023-10-08T13:34:51;101748.00;;;30.91;43.18
64368;BME280;50692;53.314;-6.300;2023-10-08T13:37:41;101734.25;;;30.69;43.55
64368;BME280;50692;53.314;-6.300;2023-10-08T13:40:27;101738.88;;;30.39;44.22
64368;BME280;50692;53.314;-6.300;2023-10-08T13:43:18;101732.41;;;30.02;44.67
64368;BME280;50692;53.314;-6.300;2023-10-08T13:46:06;101707.22;;;29.62;44.84
64368;BME280;50692;53.314;-6.300;2023-10-08T13:48:53;101721.81;;;29.70;44.53
64368;BME280;50692;53.314;-6.300;2023-10-08T13:51:39;101709.97;;;29.77;44.45
64368;BME280;50692;53.314;-6.300;2023-10-08T13:54:25;101718.22;;;30.07;44.07
64368;BME280;50692;53.314;-6.300;2023-10-08T13:57:14;101719.22;;;29.91;43.36
64368;BME280;50692;53.314;-6.300;2023-10-08T14:00:00;101713.56;;;29.78;44.42
64368;BME280;50692;53.314;-6.300;2023-10-08T14:02:47;101704.63;;;29.38;44.28
64368;BME280;50692;53.314;-6.300;2023-10-08T14:05:38;101693.28;;;29.03;45.03
64368;BME280;50692;53.314;-6.300;2023-10-08T14:08:23;101707.91;;;28.63;45.98
64368;BME280;50692;53.314;-6.300;2023-10-08T14:11:14;101726.66;;;28.25;46.65
64368;BME280;50692;53.314;-6.300;2023-10-08T14:14:00;101708.22;;;27.88;47.02
64368;BME280;50692;53.314;-6.300;2023-10-08T14:16:52;101714.63;;;27.70;47.90
64368;BME280;50692;53.314;-6.300;2023-10-08T14:19:39;101727.53;;;27.52;48.44
64368;BME280;50692;53.314;-6.300;2023-10-08T14:22:31;101720.53;;;27.41;48.82
64368;BME280;50692;53.314;-6.300;2023-10-08T14:25:18;101709.81;;;27.15;49.66
64368;BME280;50692;53.314;-6.300;2023-10-08T14:28:09;101709.72;;;27.07;50.15
64368;BME280;50692;53.314;-6.300;2023-10-08T14:31:08;101697.84;;;27.00;50.54
64368;BME280;50692;53.314;-6.300;2023-10-08T14:33:55;101689.69;;;26.92;50.93
64368;BME280;50692;53.314;-6.300;2023-10-08T14:36:42;101697.63;;;26.85;51.39
64368;BME280;50692;53.314;-6.300;2023-10-08T14:39:46;101705.09;;;26.83;51.37
64368;BME280;50692;53.314;-6.300;2023-10-08T14:42:50;101685.16;;;26.58;51.82
64368;BME280;50692;53.314;-6.300;2023-10-08T14:45:43;101701.88;;;26.88;51.55